Time;durP1;ratioP1;P1;durP2;ratioP2;P2;SDS_P1;SDS_P2;PMS_P1;PMS_P2;Temp;Humidity;BMP_temperature;BMP_pressure;BME280_temperature;BME280_humidity;BME280_pressure;Samples;Min_cycle;Max_cycle;Signal;HPM_P1;HPM_P2
2021/09/23 00:08:32;;;;;;;25.02;17.27;;;;;;;9.27;100.00;102095.13;10624044;27;20054;-85
2021/09/23 00:13:34;;;;;;;22.70;17.15;;;;;;;9.07;100.00;102082.22;10607573;28;20061;-85
2021/09/23 00:18:35;;;;;;;24.83;17.45;;;;;;;9.00;100.00;102088.84;10643880;27;20134;-87
2021/09/23 00:23:37;;;;;;;23.55;17.73;;;;;;;9.15;100.00;102074.00;10604522;28;20403;-85
2021/09/23 00:28:39;;;;;;;24.52;18.88;;;;;;;9.12;100.00;102063.53;10604011;27;20078;-85
2021/09/23 00:33:41;;;;;;;26.30;19.23;;;;;;;9.10;100.00;102065.19;10621602;27;20495;-86
2021/09/23 00:38:42;;;;;;;24.02;17.98;;;;;;;9.00;100.00;102074.25;10615043;27;20085;-85
2021/09/23 00:43:45;;;;;;;23.73;18.80;;;;;;;8.96;100.00;102067.22;10623526;27;20090;-86
2021/09/23 00:48:50;;;;;;;23.10;18.80;;;;;;;8.87;100.00;102053.03;10616146;27;20042;-86
2021/09/23 00:53:51;;;;;;;23.30;17.88;;;;;;;8.84;100.00;102051.19;10618706;27;20497;-86
2021/09/23 00:58:57;;;;;;;24.98;19.92;;;;;;;8.79;100.00;102038.91;10638857;27;20049;-85
2021/09/23 01:03:58;;;;;;;32.30;21.75;;;;;;;8.92;100.00;102021.44;10613024;27;20487;-86
2021/09/23 01:09:00;;;;;;;35.05;23.08;;;;;;;9.40;100.00;102016.44;10635382;27;20072;-86
2021/09/23 01:14:02;;;;;;;37.25;22.70;;;;;;;9.71;100.00;102013.31;10632535;27;20125;-85
2021/09/23 01:19:04;;;;;;;29.75;22.02;;;;;;;9.55;100.00;102011.88;10637121;27;20130;-85
2021/09/23 01:24:05;;;;;;;28.45;20.52;;;;;;;9.14;100.00;102007.69;10628504;27;20124;-85
2021/09/23 01:29:07;;;;;;;22.75;18.05;;;;;;;8.87;100.00;102009.16;10618624;27;20047;-85
2021/09/23 01:34:08;;;;;;;26.52;18.90;;;;;;;8.82;100.00;101995.19;10642639;27;20063;-85
2021/09/23 01:39:16;;;;;;;28.67;19.58;;;;;;;9.05;100.00;102006.44;10648006;27;20510;-86
2021/09/23 01:44:18;;;;;;;28.40;20.95;;;;;;;9.00;100.00;101990.78;10651293;27;20051;-84
2021/09/23 01:49:19;;;;;;;31.20;21.48;;;;;;;9.12;100.00;101991.25;10650933;27;20137;-86
2021/09/23 01:54:21;;;;;;;38.20;24.10;;;;;;;9.21;100.00;101990.75;10650855;27;20057;-85
2021/09/23 01:59:24;;;;;;;37.17;23.95;;;;;;;9.12;100.00;101991.25;10667340;27;20046;-86
2021/09/23 02:04:25;;;;;;;38.58;22.80;;;;;;;9.31;100.00;101979.94;10641994;27;20122;-86
2021/09/23 02:09:27;;;;;;;42.55;25.38;;;;;;;9.28;100.00;101972.94;10668327;27;20081;-85
2021/09/23 02:14:28;;;;;;;40.33;23.98;;;;;;;9.54;100.00;101955.88;10667485;27;20046;-86
2021/09/23 02:19:30;;;;;;;35.90;25.38;;;;;;;9.48;100.00;101936.69;10664927;27;20073;-85
2021/09/23 02:24:32;;;;;;;35.10;24.45;;;;;;;9.72;100.00;101934.09;10649709;27;20078;-86
2021/09/23 02:29:34;;;;;;;33.45;23.67;;;;;;;9.48;100.00;101922.06;10668135;27;20048;-85
2021/09/23 02:34:37;;;;;;;37.40;25.65;;;;;;;9.90;100.00;101897.69;10649293;27;20412;-85
2021/09/23 02:39:38;;;;;;;38.35;27.30;;;;;;;9.90;100.00;101901.16;10649862;27;20408;-86
2021/09/23 02:44:40;;;;;;;43.28;27.63;;;;;;;10.07;100.00;101884.50;10666941;27;20050;-85
2021/09/23 02:49:42;;;;;;;41.80;29.15;;;;;;;10.12;100.00;101858.81;10650174;27;20062;-87
2021/09/23 02:54:43;;;;;;;45.00;29.17;;;;;;;10.17;99.86;101858.97;10652321;27;20051;-86
2021/09/23 02:59:45;;;;;;;38.13;26.77;;;;;;;10.03;100.00;101864.53;10647940;27;20129;-86
2021/09/23 03:04:47;;;;;;;38.50;24.15;;;;;;;9.70;100.00;101872.03;10666379;27;20088;-85
2021/09/23 03:09:48;;;;;;;41.35;26.73;;;;;;;9.44;100.00;101852.16;10665944;27;20085;-86
2021/09/23 03:14:50;;;;;;;31.05;23.40;;;;;;;9.35;100.00;101868.19;10648501;27;20092;-87
2021/09/23 03:19:54;;;;;;;37.65;25.88;;;;;;;9.38;100.00;101860.56;10651330;27;20053;-87
2021/09/23 03:24:56;;;;;;;38.90;26.38;;;;;;;9.39;100.00;101857.16;10647229;27;20049;-86
2021/09/23 03:29:58;;;;;;;36.25;24.77;;;;;;;9.45;100.00;101843.56;10665186;27;20085;-86
2021/09/23 03:35:00;;;;;;;36.13;25.00;;;;;;;9.48;100.00;101843.69;10630126;27;20078;-87
2021/09/23 03:40:04;;;;;;;41.55;26.90;;;;;;;9.50;100.00;101847.19;10604025;27;20126;-86
2021/09/23 03:45:07;;;;;;;44.97;28.25;;;;;;;9.38;100.00;101836.44;10604293;27;20089;-85
2021/09/23 03:50:09;;;;;;;49.20;30.60;;;;;;;9.84;100.00;101838.91;10620668;28;20086;-86
2021/09/23 03:55:11;;;;;;;39.58;29.48;;;;;;;9.97;100.00;101828.13;10603313;28;20516;-86
2021/09/23 04:00:14;;;;;;;43.97;30.95;;;;;;;9.76;100.00;101837.78;10622073;28;20055;-85
2021/09/23 04:05:15;;;;;;;45.00;29.90;;;;;;;9.96;100.00;101847.06;10607171;27;20074;-85
2021/09/23 04:10:18;;;;;;;54.35;32.38;;;;;;;9.98;100.00;101850.59;10630065;27;20168;-86
2021/09/23 04:15:19;;;;;;;44.95;28.00;;;;;;;9.79;100.00;101843.03;10610711;27;20490;-85
2021/09/23 04:20:21;;;;;;;44.63;29.95;;;;;;;9.92;100.00;101844.31;10610536;27;20096;-86
2021/09/23 04:25:22;;;;;;;45.38;28.40;;;;;;;9.71;100.00;101840.22;10611401;27;20039;-85
2021/09/23 04:30:24;;;;;;;46.08;30.02;;;;;;;9.87;100.00;101830.38;10610906;27;20051;-85
2021/09/23 04:35:26;;;;;;;45.20;29.98;;;;;;;9.74;100.00;101829.97;10611132;27;20047;-86
2021/09/23 04:40:29;;;;;;;40.38;26.55;;;;;;;9.72;100.00;101817.81;10613424;27;20082;-86
2021/09/23 04:45:31;;;;;;;41.85;29.27;;;;;;;9.87;100.00;101809.69;10613286;27;20050;-86
2021/09/23 04:50:35;;;;;;;48.00;31.70;;;;;;;9.92;100.00;101798.69;10612602;27;20096;-86
2021/09/23 04:55:37;;;;;;;51.70;32.33;;;;;;;9.97;100.00;101793.66;10610481;27;20130;-85
2021/09/23 05:00:39;;;;;;;43.45;30.15;;;;;;;9.95;100.00;101783.28;10610832;27;20078;-85
2021/09/23 05:05:41;;;;;;;47.15;31.40;;;;;;;10.08;100.00;101772.50;10628328;27;20040;-85
2021/09/23 05:10:43;;;;;;;38.30;27.33;;;;;;;10.00;100.00;101761.06;10612322;27;20118;-85
2021/09/23 05:15:45;;;;;;;43.92;30.00;;;;;;;10.14;100.00;101758.88;10607512;27;20459;-83
2021/09/23 05:20:46;;;;;;;43.92;30.00;;;;;;;10.25;100.00;101744.63;10615760;27;20078;-84
2021/09/23 05:25:49;;;;;;;47.60;32.90;;;;;;;10.07;100.00;101757.81;10603130;27;20047;-85
2021/09/23 05:30:51;;;;;;;41.80;29.10;;;;;;;9.93;100.00;101759.09;10609143;27;20043;-85
2021/09/23 05:35:53;;;;;;;44.03;30.63;;;;;;;9.80;100.00;101754.34;10608107;27;20467;-85
2021/09/23 05:40:59;;;;;;;42.25;29.85;;;;;;;9.78;100.00;101749.13;10608852;27;20047;-86
2021/09/23 05:46:01;;;;;;;43.80;31.45;;;;;;;9.87;100.00;101763.16;10608150;27;20043;-87
2021/09/23 05:51:02;;;;;;;48.10;31.75;;;;;;;9.98;100.00;101742.03;10606985;27;20047;-85
2021/09/23 05:56:04;;;;;;;48.83;32.78;;;;;;;10.07;100.00;101736.25;10607062;27;20108;-86
2021/09/23 06:01:13;;;;;;;50.22;32.22;;;;;;;10.07;100.00;101739.72;10609184;27;20051;-85
2021/09/23 06:06:22;;;;;;;51.90;32.83;;;;;;;10.34;100.00;101723.34;10607752;27;20070;-85
2021/09/23 06:11:23;;;;;;;47.83;33.30;;;;;;;10.38;100.00;101713.94;10623930;27;20058;-85
2021/09/23 06:16:25;;;;;;;54.15;36.10;;;;;;;10.44;100.00;101717.63;10621518;27;20138;-86
2021/09/23 06:21:27;;;;;;;48.67;31.95;;;;;;;10.57;100.00;101718.84;10604510;27;20093;-85
2021/09/23 06:26:29;;;;;;;55.15;32.53;;;;;;;10.58;100.00;101726.63;10591994;27;20067;-86
2021/09/23 06:31:32;;;;;;;53.22;35.03;;;;;;;10.74;100.00;101729.69;10603591;27;20078;-85
2021/09/23 06:36:35;;;;;;;52.13;33.65;;;;;;;10.89;100.00;101735.25;10622426;27;20479;-86
2021/09/23 06:41:36;;;;;;;55.15;32.92;;;;;;;11.04;100.00;101707.22;10651548;27;20050;-87
2021/09/23 06:46:38;;;;;;;47.78;32.05;;;;;;;11.16;100.00;101709.25;10629162;27;20046;-86
2021/09/23 06:51:39;;;;;;;51.22;33.88;;;;;;;11.32;100.00;101720.88;10638714;27;20410;-87
2021/09/23 06:56:41;;;;;;;48.95;35.50;;;;;;;11.42;100.00;101707.34;10651118;27;20052;-85
2021/09/23 07:01:43;;;;;;;51.60;34.08;;;;;;;11.48;100.00;101698.84;10627025;27;20039;-87
2021/09/23 07:06:44;;;;;;;48.42;33.35;;;;;;;11.57;100.00;101699.06;10643587;27;20050;-87
2021/09/23 07:11:46;;;;;;;48.95;34.03;;;;;;;11.58;100.00;101724.16;10645509;27;20482;-88
2021/09/23 07:16:49;;;;;;;54.05;36.90;;;;;;;11.67;100.00;101714.00;10628973;27;20046;-87
2021/09/23 07:21:50;;;;;;;54.42;37.22;;;;;;;11.83;100.00;101700.59;10639418;27;20059;-86
2021/09/23 07:26:52;;;;;;;48.60;35.38;;;;;;;12.02;100.00;101694.09;10623501;27;20085;-89
2021/09/23 07:31:54;;;;;;;56.42;38.55;;;;;;;12.22;100.00;101704.06;10615638;27;20104;-87
2021/09/23 07:36:55;;;;;;;58.03;36.28;;;;;;;12.41;100.00;101694.09;10650169;27;20084;-86
2021/09/23 07:41:57;;;;;;;59.53;41.30;;;;;;;12.71;100.00;101675.69;10649177;27;20055;-87
2021/09/23 07:46:59;;;;;;;58.10;38.33;;;;;;;12.97;100.00;101660.59;10644860;27;20134;-94
2021/09/23 07:52:01;;;;;;;58.70;38.08;;;;;;;13.17;100.00;101647.09;10659779;27;20498;-88
2021/09/23 07:57:03;;;;;;;59.00;38.88;;;;;;;13.30;100.00;101632.59;10647518;27;20047;-89
2021/09/23 08:02:06;;;;;;;50.85;32.65;;;;;;;13.41;100.00;101616.31;10648926;27;20517;-86
2021/09/23 08:07:08;;;;;;;50.20;33.70;;;;;;;13.56;100.00;101609.59;10654833;27;20138;-90
2021/09/23 08:12:10;;;;;;;55.25;36.30;;;;;;;13.70;100.00;101606.38;10663584;27;20104;-92
2021/09/23 08:17:11;;;;;;;52.33;35.25;;;;;;;13.82;100.00;101600.47;10666304;27;20038;-91
2021/09/23 08:22:13;;;;;;;51.20;34.00;;;;;;;13.99;100.00;101611.97;10669477;27;20053;-90
2021/09/23 08:27:15;;;;;;;50.38;31.48;;;;;;;14.21;99.41;101605.31;10660122;27;20047;-90
2021/09/23 08:32:20;;;;;;;51.42;31.90;;;;;;;14.51;98.44;101624.75;10646513;27;20135;-91
2021/09/23 08:37:22;;;;;;;44.97;32.20;;;;;;;14.69;97.60;101626.69;10592461;28;20051;-88
2021/09/23 08:42:25;;;;;;;42.40;28.27;;;;;;;14.63;97.44;101634.44;10606029;28;20043;-90
2021/09/23 08:47:27;;;;;;;46.70;29.08;;;;;;;15.01;95.12;101635.72;10625813;28;20078;-90
2021/09/23 08:52:29;;;;;;;28.83;16.63;;;;;;;15.31;94.66;101649.88;10610989;27;20047;-92
2021/09/23 08:57:31;;;;;;;35.67;22.98;;;;;;;15.58;93.11;101630.94;10615078;27;20047;-91
2021/09/23 09:02:33;;;;;;;23.77;17.10;;;;;;;15.55;91.70;101639.66;10614485;27;20104;-89
2021/09/23 09:07:38;;;;;;;26.30;19.17;;;;;;;15.54;91.59;101637.91;10615375;27;20046;-93
2021/09/23 09:12:45;;;;;;;25.70;17.43;;;;;;;15.54;91.33;101640.50;10615632;27;20475;-90
2021/09/23 09:17:48;;;;;;;28.08;19.20;;;;;;;15.52;91.87;101629.19;10614805;27;20039;-92
2021/09/23 09:22:50;;;;;;;28.35;17.30;;;;;;;15.58;91.31;101628.34;10614317;27;20106;-88
2021/09/23 09:27:54;;;;;;;30.52;18.75;;;;;;;15.65;91.11;101627.56;10612663;27;20072;-87
2021/09/23 09:32:57;;;;;;;26.80;17.00;;;;;;;15.86;90.44;101632.03;10622158;27;20051;-90
2021/09/23 09:38:01;;;;;;;24.33;19.00;;;;;;;16.15;88.67;101622.63;10649609;27;20042;-90
2021/09/23 09:43:11;;;;;;;21.13;17.57;;;;;;;16.30;87.53;101595.69;10646088;27;20077;-91
2021/09/23 09:48:13;;;;;;;22.30;15.98;;;;;;;16.52;86.39;101588.81;10649009;27;20317;-89
2021/09/23 09:53:14;;;;;;;20.25;15.57;;;;;;;16.81;84.44;101591.50;10643178;27;20090;-91
2021/09/23 09:58:21;;;;;;;19.58;15.45;;;;;;;17.26;82.30;101591.50;10643132;27;20471;-89
2021/09/23 10:03:23;;;;;;;18.17;14.75;;;;;;;17.09;83.41;101597.63;10602768;27;20047;-90
2021/09/23 10:08:26;;;;;;;13.85;10.25;;;;;;;16.90;83.24;101599.34;10669852;27;20047;-92
2021/09/23 10:13:28;;;;;;;16.83;13.20;;;;;;;16.83;83.53;101602.81;10632789;27;20114;-92
2021/09/23 10:18:30;;;;;;;15.48;12.55;;;;;;;16.80;83.79;101589.75;10652077;27;20039;-89
2021/09/23 10:23:39;;;;;;;17.02;13.00;;;;;;;16.83;83.86;101605.44;10659256;27;20060;-91
2021/09/23 10:28:45;;;;;;;15.57;11.43;;;;;;;17.18;81.13;101602.81;10604322;27;20043;-95
2021/09/23 10:33:50;;;;;;;15.02;10.25;;;;;;;16.89;82.84;101594.09;10655545;27;20122;-95
2021/09/23 10:38:52;;;;;;;17.42;9.60;;;;;;;16.71;82.18;101588.88;10647900;27;20054;-93
2021/09/23 10:43:56;;;;;;;13.18;7.93;;;;;;;16.79;82.71;101579.28;10653281;27;20120;-90
2021/09/23 10:48:59;;;;;;;10.07;6.78;;;;;;;16.87;82.17;101585.41;10666507;27;20543;-93
2021/09/23 10:54:03;;;;;;;10.70;6.95;;;;;;;16.89;81.53;101588.88;10632709;27;20086;-91
2021/09/23 10:59:05;;;;;;;11.73;6.22;;;;;;;16.88;82.11;101594.97;10641404;27;20055;-91
2021/09/23 11:04:07;;;;;;;9.10;5.72;;;;;;;16.83;82.66;101594.97;10631906;27;20141;-92
2021/09/23 11:09:23;;;;;;;6.07;4.72;;;;;;;16.85;82.59;101587.16;10660105;27;20100;-91
2021/09/23 11:14:29;;;;;;;6.45;4.63;;;;;;;16.89;81.97;101581.91;10640420;27;20076;-91
2021/09/23 11:19:32;;;;;;;8.32;3.78;;;;;;;16.89;78.98;101566.22;10655638;27;20126;-89
2021/09/23 11:24:33;;;;;;;9.13;3.45;;;;;;;17.03;78.76;101563.63;10635654;27;20047;-90
2021/09/23 11:29:35;;;;;;;9.73;3.13;;;;;;;17.03;77.38;101563.63;10640414;27;20116;-87
2021/09/23 11:34:39;;;;;;;3.33;2.80;;;;;;;16.97;77.80;101539.25;10623370;27;20051;-90
2021/09/23 11:39:47;;;;;;;6.32;3.92;;;;;;;17.62;76.33;101539.09;10608974;27;20047;-89
2021/09/23 11:44:50;;;;;;;9.85;4.55;;;;;;;18.25;73.05;101536.25;10609210;27;20425;-88
2021/09/23 11:49:57;;;;;;;5.32;3.80;;;;;;;18.50;70.68;101527.38;10610685;28;20070;-90
2021/09/23 11:55:00;;;;;;;6.72;3.67;;;;;;;18.82;70.07;101543.75;10610232;28;20104;-86
2021/09/23 12:00:04;;;;;;;5.53;3.90;;;;;;;18.52;68.77;101538.69;10609856;28;20085;-89
2021/09/23 12:05:06;;;;;;;8.60;4.20;;;;;;;18.51;69.96;101533.47;10627988;28;20105;-88
2021/09/23 12:10:14;;;;;;;7.10;3.78;;;;;;;18.58;70.40;101511.56;10611112;28;20134;-89
2021/09/23 12:15:21;;;;;;;10.40;4.70;;;;;;;18.78;70.18;101499.22;10615362;28;20073;-88
2021/09/23 12:20:44;;;;;;;10.50;3.60;;;;;;;18.52;69.54;101498.53;10612231;28;20053;-89
2021/09/23 12:26:11;;;;;;;9.98;3.50;;;;;;;18.56;69.13;101499.38;10611768;27;20062;-88
2021/09/23 12:31:25;;;;;;;8.63;3.58;;;;;;;18.58;69.25;101493.22;10613057;27;20082;-87
2021/09/23 12:36:29;;;;;;;7.38;3.05;;;;;;;18.47;69.70;101501.16;10618197;27;20552;-90
2021/09/23 12:41:31;;;;;;;6.53;3.60;;;;;;;18.42;69.78;101491.59;10617288;27;20108;-89
2021/09/23 12:46:41;;;;;;;5.10;3.10;;;;;;;18.28;69.50;101492.56;10635217;27;20505;-88
2021/09/23 12:51:48;;;;;;;6.00;3.35;;;;;;;18.22;70.24;101484.75;10635451;27;20043;-89
2021/09/23 12:57:06;;;;;;;7.68;2.88;;;;;;;18.16;71.26;101487.41;10635555;27;20054;-89
2021/09/23 13:02:08;;;;;;;5.35;3.25;;;;;;;18.16;71.20;101482.19;10617692;27;20116;-89
2021/09/23 13:07:21;;;;;;;6.75;2.90;;;;;;;18.04;72.89;101486.59;10615776;27;20039;-89
2021/09/23 13:12:41;;;;;;;4.60;2.47;;;;;;;17.99;72.24;101489.25;10615321;27;20046;-88
2021/09/23 13:17:42;;;;;;;5.32;2.53;;;;;;;17.99;72.14;101476.16;10630457;27;20082;-86
2021/09/23 13:22:44;;;;;;;8.35;2.50;;;;;;;18.11;72.91;101485.72;10631005;27;20061;-89
2021/09/23 13:27:46;;;;;;;6.60;2.50;;;;;;;17.97;73.64;101491.88;10612798;27;20058;-87
2021/09/23 13:32:49;;;;;;;6.57;2.17;;;;;;;17.66;74.99;101498.97;10614957;27;20152;-88
2021/09/23 13:37:50;;;;;;;5.82;1.65;;;;;;;17.65;74.72;101492.00;10629198;27;20402;-86
2021/09/23 13:42:52;;;;;;;6.72;1.73;;;;;;;17.60;76.34;101491.16;10610624;27;20079;-88
2021/09/23 13:47:54;;;;;;;6.25;1.85;;;;;;;17.58;76.70;101485.03;10608615;27;20040;-90
2021/09/23 13:52:56;;;;;;;3.42;1.83;;;;;;;17.30;79.18;101505.19;10611088;27;20098;-88
2021/09/23 13:57:57;;;;;;;7.88;2.00;;;;;;;17.24;80.18;101489.50;10609838;27;20088;-87
2021/09/23 14:03:00;;;;;;;4.18;1.50;;;;;;;17.21;80.28;101486.91;10628428;27;20071;-88
2021/09/23 14:08:04;;;;;;;4.05;2.05;;;;;;;17.26;80.26;101490.38;10606253;27;20061;-86
2021/09/23 14:13:05;;;;;;;7.40;2.80;;;;;;;17.38;80.49;101492.09;10606497;27;20075;-86
2021/09/23 14:18:07;;;;;;;6.65;2.47;;;;;;;17.30;80.47;101497.34;10625292;27;20078;-91
2021/09/23 14:23:17;;;;;;;2.05;1.48;;;;;;;17.38;80.36;101494.72;10602425;27;20047;-85
2021/09/23 14:28:18;;;;;;;3.83;1.90;;;;;;;17.45;81.06;101488.56;10628792;27;20051;-88
2021/09/23 14:33:20;;;;;;;5.53;1.75;;;;;;;17.53;80.54;101488.53;10610099;27;20576;-87
2021/09/23 14:38:22;;;;;;;6.00;2.17;;;;;;;17.54;80.52;101485.06;10610979;27;20487;-90
2021/09/23 14:43:24;;;;;;;6.28;2.78;;;;;;;17.73;80.87;101482.41;10631434;27;20043;-89
2021/09/23 14:48:25;;;;;;;7.32;2.22;;;;;;;17.89;80.11;101487.56;10611579;27;20051;-90
2021/09/23 14:53:27;;;;;;;5.25;2.55;;;;;;;17.83;81.06;101479.75;10611800;27;20078;-88
2021/09/23 14:58:29;;;;;;;4.00;2.00;;;;;;;17.78;80.91;101481.50;10629016;27;20047;-88
2021/09/23 15:03:30;;;;;;;8.20;2.72;;;;;;;17.71;82.66;101481.50;10633214;27;20047;-89
2021/09/23 15:08:33;;;;;;;4.70;2.10;;;;;;;17.70;82.43;101481.53;10613148;27;20473;-88
2021/09/23 15:13:36;;;;;;;9.18;2.67;;;;;;;17.72;82.09;101472.81;10630053;27;20058;-87
2021/09/23 15:18:42;;;;;;;7.65;2.55;;;;;;;17.65;82.07;101475.44;10628896;27;20046;-88
2021/09/23 15:23:44;;;;;;;3.95;1.92;;;;;;;17.76;81.06;101470.19;10618623;27;20055;-86
2021/09/23 15:28:46;;;;;;;2.65;1.23;;;;;;;17.86;80.37;101459.63;10627848;27;20066;-87
2021/09/23 15:33:47;;;;;;;3.28;1.85;;;;;;;17.80;78.98;101471.88;10629201;27;20138;-89
2021/09/23 15:38:50;;;;;;;2.60;1.60;;;;;;;17.89;78.47;101480.56;10669474;27;20046;-89
2021/09/23 15:43:52;;;;;;;4.30;1.58;;;;;;;17.78;79.28;101473.66;10652870;27;20079;-90
2021/09/23 15:48:58;;;;;;;3.05;1.45;;;;;;;17.54;77.98;101459.78;10668966;27;20092;-90
2021/09/23 15:54:00;;;;;;;4.55;1.40;;;;;;;17.41;76.72;101448.47;10651071;27;20047;-88
2021/09/23 15:59:04;;;;;;;3.92;1.48;;;;;;;17.28;77.17;101454.63;10669026;27;20043;-86
2021/09/23 16:04:06;;;;;;;4.47;1.60;;;;;;;17.22;77.41;101455.50;10643207;27;20138;-89
2021/09/23 16:09:08;;;;;;;4.70;1.38;;;;;;;17.20;78.18;101464.25;10677410;27;20520;-88
2021/09/23 16:14:09;;;;;;;3.53;1.60;;;;;;;17.09;79.38;101453.81;10664923;27;20054;-91
2021/09/23 16:19:11;;;;;;;7.88;1.65;;;;;;;17.07;80.07;101444.22;10675869;27;20493;-90
2021/09/23 16:24:13;;;;;;;8.02;2.50;;;;;;;17.08;79.15;101440.75;10659481;27;20053;-90
2021/09/23 16:29:14;;;;;;;6.97;1.80;;;;;;;17.02;80.21;101446.84;10656689;27;20553;-90
2021/09/23 16:34:16;;;;;;;5.40;1.73;;;;;;;16.95;80.10;101434.66;10654085;27;20502;-92
2021/09/23 16:39:17;;;;;;;2.95;1.48;;;;;;;16.95;80.52;101445.09;10649761;27;20051;-89
2021/09/23 16:44:22;;;;;;;5.47;2.15;;;;;;;16.89;80.43;101448.59;10642517;27;20063;-89
2021/09/23 16:49:24;;;;;;;4.70;2.25;;;;;;;16.91;79.99;101427.72;10652514;27;20047;-90
2021/09/23 16:54:25;;;;;;;3.25;1.77;;;;;;;16.89;80.09;101429.44;10647081;27;20047;-91
2021/09/23 16:59:27;;;;;;;1.90;1.70;;;;;;;16.81;81.44;101429.47;10627727;27;20043;-89
2021/09/23 17:04:29;;;;;;;4.68;2.10;;;;;;;16.79;80.88;101427.69;10630133;27;20055;-91
2021/09/23 17:09:31;;;;;;;4.68;3.45;;;;;;;16.78;81.28;101439.03;10630192;27;20130;-89
2021/09/23 17:14:33;;;;;;;3.60;2.17;;;;;;;16.77;81.14;101443.38;10648461;27;20055;-90
2021/09/23 17:19:35;;;;;;;4.78;2.15;;;;;;;16.71;81.70;101432.06;10637122;27;20043;-88
2021/09/23 17:24:37;;;;;;;8.18;4.38;;;;;;;16.65;82.47;101436.41;10659871;27;20096;-93
2021/09/23 17:29:38;;;;;;;4.22;3.05;;;;;;;16.66;82.63;101432.91;10646397;27;20043;-91
2021/09/23 17:34:40;;;;;;;5.35;2.40;;;;;;;16.65;83.73;101436.41;10628392;27;20078;-91
2021/09/23 17:39:42;;;;;;;11.05;3.03;;;;;;;16.65;83.88;101436.41;10644344;27;20722;-91
2021/09/23 17:44:45;;;;;;;4.05;2.58;;;;;;;16.70;83.95;101441.63;10628720;27;20147;-90
2021/09/23 17:49:47;;;;;;;8.15;2.80;;;;;;;16.62;84.58;101441.66;10651749;27;20046;-90
2021/09/23 17:54:50;;;;;;;6.05;2.65;;;;;;;16.60;85.03;101443.38;10642417;27;20051;-92
2021/09/23 17:59:55;;;;;;;5.13;2.55;;;;;;;16.61;85.17;101449.47;10622236;27;20502;-88
2021/09/23 18:04:57;;;;;;;5.53;2.33;;;;;;;16.60;85.73;101455.56;10616013;27;20058;-91
2021/09/23 18:09:59;;;;;;;7.30;2.78;;;;;;;16.47;86.38;101448.59;10645218;27;20042;-90
2021/09/23 18:15:01;;;;;;;5.95;4.35;;;;;;;16.50;87.22;101457.28;10644360;27;20069;-89
2021/09/23 18:20:05;;;;;;;6.55;3.83;;;;;;;16.52;87.81;101455.56;10631176;27;20270;-89
2021/09/23 18:25:08;;;;;;;12.60;4.00;;;;;;;16.53;88.11;101456.44;10612352;27;20054;-92
2021/09/23 18:30:13;;;;;;;10.98;3.90;;;;;;;16.51;88.49;101471.25;10651297;27;20090;-89
2021/09/23 18:35:15;;;;;;;6.78;3.75;;;;;;;16.45;88.73;101461.69;10643572;27;20051;-89
2021/09/23 18:40:17;;;;;;;6.82;3.90;;;;;;;16.44;89.16;101480.81;10645477;27;20047;-89
2021/09/23 18:45:20;;;;;;;8.32;4.38;;;;;;;16.40;89.27;101466.03;10640557;27;20059;-90
2021/09/23 18:50:22;;;;;;;4.93;3.97;;;;;;;16.34;90.14;101481.69;10634873;27;20497;-89
2021/09/23 18:55:23;;;;;;;6.15;4.00;;;;;;;16.30;91.29;101480.81;10607224;27;20092;-90
2021/09/23 19:00:25;;;;;;;8.23;4.10;;;;;;;16.30;91.90;101486.03;10639445;27;20092;-88
2021/09/23 19:05:29;;;;;;;10.43;5.38;;;;;;;16.25;92.75;101497.31;10645624;27;20051;-90
2021/09/23 19:10:31;;;;;;;10.43;4.47;;;;;;;16.19;94.30;101512.97;10658917;27;20449;-92
2021/09/23 19:15:35;;;;;;;7.47;5.22;;;;;;;16.11;95.79;101505.09;10632863;27;20047;-88
2021/09/23 19:20:39;;;;;;;10.65;5.30;;;;;;;16.02;97.32;101500.75;10623386;27;20043;-88
2021/09/23 19:25:41;;;;;;;11.60;5.57;;;;;;;16.00;97.91;101509.47;10633468;27;20491;-90
2021/09/23 19:30:43;;;;;;;6.85;4.65;;;;;;;15.93;98.73;101512.88;10629177;27;20051;-91
2021/09/23 19:35:45;;;;;;;14.38;6.68;;;;;;;15.97;98.96;101538.13;10623257;27;20057;-89
2021/09/23 19:40:47;;;;;;;11.05;6.15;;;;;;;15.90;99.62;101543.34;10638673;27;20134;-89
2021/09/23 19:45:49;;;;;;;8.32;4.28;;;;;;;15.72;99.36;101545.00;10645374;27;20077;-89
2021/09/23 19:50:50;;;;;;;10.13;4.70;;;;;;;15.69;99.58;101560.63;10641403;27;20046;-88
2021/09/23 19:55:52;;;;;;;8.70;3.72;;;;;;;15.58;100.00;101545.75;10656529;27;20067;-89
2021/09/23 20:00:56;;;;;;;13.20;4.93;;;;;;;15.51;100.00;101543.09;10649149;27;20051;-87
2021/09/23 20:05:58;;;;;;;10.30;4.57;;;;;;;15.48;100.00;101546.56;10628991;27;20093;-88
2021/09/23 20:10:59;;;;;;;8.57;4.57;;;;;;;15.46;100.00;101550.03;10631984;27;20078;-87
2021/09/23 20:16:01;;;;;;;7.63;4.05;;;;;;;15.37;100.00;101538.69;10630759;27;20047;-89
2021/09/23 20:21:03;;;;;;;7.55;3.33;;;;;;;15.37;100.00;101532.56;10636519;27;20050;-87
2021/09/23 20:26:05;;;;;;;6.53;3.35;;;;;;;15.32;99.88;101534.31;10631649;27;20112;-87
2021/09/23 20:31:06;;;;;;;9.70;3.45;;;;;;;15.29;99.78;101540.34;10625046;27;20129;-88
2021/09/23 20:36:08;;;;;;;8.77;3.65;;;;;;;15.30;98.69;101555.13;10646350;27;20058;-89
2021/09/23 20:41:10;;;;;;;4.53;2.67;;;;;;;15.32;100.00;101560.38;10620915;28;20085;-87
2021/09/23 20:46:12;;;;;;;7.65;3.00;;;;;;;15.29;100.00;101558.59;10612524;27;20047;-90
2021/09/23 20:51:14;;;;;;;9.30;3.30;;;;;;;15.14;100.00;101557.63;10630368;27;20498;-87
2021/09/23 20:56:16;;;;;;;9.15;2.97;;;;;;;15.15;100.00;101564.59;10632172;27;20046;-87
2021/09/23 21:01:17;;;;;;;5.63;2.88;;;;;;;15.15;98.67;101562.88;10659640;27;20078;-88
2021/09/23 21:06:23;;;;;;;9.73;3.05;;;;;;;15.16;99.08;101558.53;10627363;27;20427;-89
2021/09/23 21:11:25;;;;;;;10.27;2.85;;;;;;;15.11;99.07;101555.88;10644195;27;20050;-86
2021/09/23 21:16:26;;;;;;;11.98;3.65;;;;;;;15.10;100.00;101561.94;10614005;27;20047;-88
2021/09/23 21:21:28;;;;;;;15.25;3.08;;;;;;;15.07;97.44;101560.19;10670514;27;20043;-88
2021/09/23 21:26:31;;;;;;;8.02;2.45;;;;;;;15.00;98.41;101552.31;10643893;27;20480;-88
2021/09/23 21:31:32;;;;;;;15.75;4.43;;;;;;;15.02;98.30;101561.00;10636210;27;20051;-88
2021/09/23 21:36:34;;;;;;;7.43;2.50;;;;;;;15.02;99.86;101559.25;10642211;27;20062;-88
2021/09/23 21:41:36;;;;;;;10.07;3.67;;;;;;;15.00;100.00;101570.56;10638713;27;20125;-88
2021/09/23 21:46:37;;;;;;;13.73;4.10;;;;;;;14.97;100.00;101573.13;10646025;27;20491;-88
2021/09/23 21:51:39;;;;;;;11.18;4.57;;;;;;;14.97;100.00;101566.16;10654215;27;20049;-87
2021/09/23 21:56:41;;;;;;;11.13;3.58;;;;;;;14.89;100.00;101559.16;10628345;27;20481;-88
2021/09/23 22:01:43;;;;;;;17.98;4.25;;;;;;;14.90;100.00;101558.31;10657421;27;20087;-88
2021/09/23 22:06:58;;;;;;;11.77;4.65;;;;;;;14.93;100.00;101556.59;10651116;27;20392;-88
2021/09/23 22:12:00;;;;;;;10.75;3.53;;;;;;;14.88;100.00;101562.63;10642183;27;20791;-87
2021/09/23 22:17:02;;;;;;;8.77;4.05;;;;;;;14.85;100.00;101555.66;10627492;27;20047;-87
2021/09/23 22:22:04;;;;;;;9.77;3.60;;;;;;;14.83;100.00;101557.38;10640420;27;20043;-89
2021/09/23 22:27:06;;;;;;;10.23;2.83;;;;;;;14.80;100.00;101555.59;10628890;27;20047;-86
2021/09/23 22:32:07;;;;;;;6.07;3.13;;;;;;;14.76;100.00;101552.97;10660668;27;20073;-87
2021/09/23 22:37:09;;;;;;;6.32;3.10;;;;;;;14.75;100.00;101548.63;10667533;27;20055;-88
2021/09/23 22:42:11;;;;;;;8.45;4.00;;;;;;;14.67;100.00;101550.28;10625392;27;20130;-87
2021/09/23 22:47:12;;;;;;;10.13;2.80;;;;;;;14.64;100.00;101542.47;10656051;27;20129;-87
2021/09/23 22:52:16;;;;;;;5.60;2.83;;;;;;;14.65;100.00;101552.00;10667904;27;20051;-86
2021/09/23 22:57:17;;;;;;;5.03;3.05;;;;;;;14.63;100.00;101549.38;10669490;27;20129;-88